createdAt,value
2019-01-12T00:00:32.840Z,0
2019-01-12T00:01:31.399Z,0
2019-01-12T00:02:29.944Z,0
2019-01-12T00:03:28.486Z,0
2019-01-12T00:04:27.033Z,0
2019-01-12T00:05:25.605Z,0
2019-01-12T00:06:24.156Z,0
2019-01-12T00:07:23.223Z,0
2019-01-12T00:08:21.861Z,0
2019-01-12T00:09:20.391Z,0
2019-01-12T00:10:19.044Z,0
2019-01-12T00:11:17.590Z,0
2019-01-12T00:12:16.111Z,0
2019-01-12T00:13:14.839Z,0
2019-01-12T00:14:13.234Z,0
2019-01-12T00:15:11.843Z,0
2019-01-12T00:16:10.364Z,0
2019-01-12T00:17:08.935Z,0
2019-01-12T00:18:07.706Z,0
2019-01-12T00:19:06.328Z,0
2019-01-12T00:20:05.179Z,0
2019-01-12T00:21:03.735Z,0
2019-01-12T00:22:02.314Z,0
2019-01-12T00:23:00.959Z,0
2019-01-12T00:23:59.803Z,0
2019-01-12T00:26:39.909Z,0
2019-01-12T00:27:38.459Z,0
2019-01-12T00:28:37.249Z,0
2019-01-12T00:29:35.788Z,0
2019-01-12T00:30:34.340Z,0
2019-01-12T00:31:32.905Z,0
2019-01-12T00:32:31.450Z,0
2019-01-12T00:33:29.991Z,0
2019-01-12T00:34:28.515Z,0
2019-01-12T00:35:27.372Z,0
2019-01-12T00:36:25.923Z,0
2019-01-12T00:37:24.442Z,0
2019-01-12T00:38:23.086Z,0
2019-01-12T00:39:21.775Z,0
2019-01-12T00:40:20.301Z,0
2019-01-12T00:41:18.987Z,0
2019-01-12T00:42:17.592Z,0
2019-01-12T00:43:16.101Z,0
2019-01-12T00:44:14.702Z,0
2019-01-12T00:45:13.591Z,0
2019-01-12T00:46:12.119Z,0
2019-01-12T00:47:10.685Z,0
2019-01-12T00:48:09.459Z,0
2019-01-12T00:49:08.062Z,0
2019-01-12T00:50:06.610Z,0
2019-01-12T00:51:05.130Z,0
2019-01-12T00:52:03.739Z,0
2019-01-12T00:54:38.551Z,0
2019-01-12T00:55:36.302Z,0
2019-01-12T00:56:34.814Z,0
2019-01-12T00:57:33.413Z,0
2019-01-12T00:58:31.955Z,0
2019-01-12T00:59:30.548Z,0
2019-01-12T01:00:29.474Z,0
2019-01-12T01:01:28.026Z,0
2019-01-12T01:02:26.554Z,0
2019-01-12T01:03:25.296Z,0
2019-01-12T01:04:25.038Z,0
2019-01-12T01:05:22.335Z,0
2019-01-12T01:06:20.940Z,0
2019-01-12T01:07:19.664Z,0
2019-01-12T01:08:18.014Z,0
2019-01-12T01:09:16.588Z,0
2019-01-12T01:10:15.143Z,0
2019-01-12T01:11:13.698Z,0
2019-01-12T01:12:12.260Z,0
2019-01-12T01:13:10.816Z,0
2019-01-12T01:14:09.700Z,0
2019-01-12T01:15:08.236Z,0
2019-01-12T01:16:06.807Z,0
2019-01-12T01:17:05.686Z,0
2019-01-12T01:18:04.249Z,0
2019-01-12T01:19:02.842Z,0
2019-01-12T01:20:01.671Z,0
2019-01-12T01:21:00.234Z,0
2019-01-12T01:21:58.834Z,0
2019-01-12T01:22:57.675Z,0
2019-01-12T01:23:56.213Z,0
2019-01-12T01:24:54.756Z,0
2019-01-12T01:25:53.284Z,0
2019-01-12T01:26:51.872Z,0
2019-01-12T01:27:50.396Z,0
2019-01-12T01:28:48.935Z,0
2019-01-12T01:29:47.493Z,0
2019-01-12T01:30:46.057Z,0
2019-01-12T01:31:44.569Z,0
2019-01-12T01:32:43.775Z,0
2019-01-12T01:33:42.314Z,0
2019-01-12T01:34:40.935Z,0
2019-01-12T01:35:39.494Z,0
2019-01-12T01:36:38.027Z,0
2019-01-12T01:37:36.569Z,0
2019-01-12T01:38:35.276Z,0
2019-01-12T01:39:33.898Z,0
2019-01-12T01:40:32.433Z,0
2019-01-12T01:41:31.129Z,0
2019-01-12T01:42:29.842Z,0
2019-01-12T01:43:28.389Z,0
2019-01-12T01:44:27.011Z,0
2019-01-12T01:45:25.640Z,0
2019-01-12T01:46:24.195Z,0
2019-01-12T01:47:22.765Z,0
2019-01-12T01:48:21.530Z,0
2019-01-12T01:49:20.076Z,0
2019-01-12T01:50:18.876Z,0
2019-01-12T01:51:17.660Z,0
2019-01-12T01:52:16.218Z,0
2019-01-12T01:53:14.763Z,0
2019-01-12T01:54:13.299Z,0
2019-01-12T01:55:11.850Z,0
2019-01-12T01:56:10.422Z,0
2019-01-12T01:57:08.991Z,0
2019-01-12T01:58:07.847Z,0
2019-01-12T01:59:06.397Z,0
2019-01-12T02:00:05.299Z,0
2019-01-12T02:01:03.878Z,0
2019-01-12T02:02:02.438Z,0
2019-01-12T02:03:00.981Z,0
2019-01-12T02:03:59.561Z,0
2019-01-12T02:04:58.142Z,0
2019-01-12T02:05:56.685Z,0
2019-01-12T02:06:55.597Z,0
2019-01-12T02:07:54.151Z,0
2019-01-12T02:08:52.771Z,0
2019-01-12T02:09:51.430Z,0
2019-01-12T02:10:49.981Z,0
2019-01-12T02:11:48.508Z,0
2019-01-12T02:12:47.088Z,0
2019-01-12T02:13:45.628Z,0
2019-01-12T02:14:44.174Z,0
2019-01-12T02:15:42.708Z,0
2019-01-12T02:18:23.184Z,0
2019-01-12T02:19:21.870Z,0
2019-01-12T02:20:20.430Z,0
2019-01-12T02:21:19.028Z,0
2019-01-12T02:22:17.574Z,0
2019-01-12T02:23:16.096Z,0
2019-01-12T02:24:14.812Z,0
2019-01-12T02:25:13.606Z,0
2019-01-12T02:26:12.156Z,0
2019-01-12T02:46:26.929Z,0
2019-01-12T02:47:25.462Z,0
2019-01-12T02:48:24.025Z,0
2019-01-12T02:49:22.652Z,0
2019-01-12T02:50:21.393Z,0
2019-01-12T02:51:20.019Z,0
2019-01-12T02:52:18.575Z,0
2019-01-12T02:53:17.484Z,0
2019-01-12T02:54:15.999Z,0
2019-01-12T02:55:14.557Z,0
2019-01-12T02:56:13.082Z,0
2019-01-12T02:57:11.648Z,0
2019-01-12T02:58:10.201Z,0
2019-01-12T03:00:50.319Z,0
2019-01-12T03:01:48.902Z,0
2019-01-12T03:02:47.724Z,0
2019-01-12T03:03:46.265Z,0
2019-01-12T03:04:44.931Z,0
2019-01-12T03:05:43.590Z,0
2019-01-12T03:06:42.148Z,0
2019-01-12T03:07:40.698Z,0
2019-01-12T03:08:39.237Z,0
2019-01-12T03:09:37.790Z,0
2019-01-12T03:10:36.645Z,0
2019-01-12T03:11:35.446Z,0
2019-01-12T03:12:34.103Z,0
2019-01-12T03:13:32.610Z,0
2019-01-12T03:14:31.183Z,0
2019-01-12T03:15:29.765Z,0
2019-01-12T03:16:28.318Z,0
2019-01-12T03:17:26.878Z,0
2019-01-12T03:18:25.425Z,0
2019-01-12T03:19:23.932Z,0
2019-01-12T03:20:22.459Z,0
2019-01-12T03:21:21.103Z,0
2019-01-12T03:22:19.821Z,0
2019-01-12T03:23:18.381Z,0
2019-01-12T03:24:17.114Z,0
2019-01-12T03:25:18.108Z,0
2019-01-12T03:26:14.279Z,0
2019-01-12T03:27:12.892Z,0
2019-01-12T03:28:11.492Z,0
2019-01-12T03:29:10.011Z,0
2019-01-12T03:30:08.580Z,0
2019-01-12T03:31:07.116Z,0
2019-01-12T03:32:05.711Z,0
2019-01-12T03:33:04.910Z,0
2019-01-12T03:34:03.530Z,0
2019-01-12T03:35:02.053Z,0
2019-01-12T03:36:00.592Z,0
2019-01-12T03:36:59.134Z,0
2019-01-12T03:37:57.693Z,0
2019-01-12T03:38:56.387Z,0
2019-01-12T03:39:54.911Z,0
2019-01-12T03:40:53.690Z,0
2019-01-12T03:41:52.211Z,0
2019-01-12T03:42:50.866Z,0
2019-01-12T03:43:49.599Z,0
2019-01-12T03:44:48.158Z,0
2019-01-12T03:45:46.699Z,0
2019-01-12T03:46:45.247Z,0
2019-01-12T03:47:43.791Z,0
2019-01-12T03:48:42.347Z,0
2019-01-12T03:49:40.915Z,0
2019-01-12T03:50:39.616Z,0
2019-01-12T03:51:38.139Z,0
2019-01-12T03:52:36.681Z,0
2019-01-12T03:53:35.475Z,0
2019-01-12T03:54:34.045Z,0
2019-01-12T03:55:32.615Z,0
2019-01-12T03:56:31.421Z,0
2019-01-12T03:57:29.989Z,0
2019-01-12T03:58:28.522Z,0
2019-01-12T03:59:27.057Z,0
2019-01-12T04:00:25.604Z,0
2019-01-12T04:01:24.236Z,0
2019-01-12T04:02:22.757Z,0
2019-01-12T04:03:21.693Z,0
2019-01-12T04:04:20.243Z,0
2019-01-12T04:05:18.826Z,0
2019-01-12T04:06:17.568Z,0
2019-01-12T04:07:16.141Z,0
2019-01-12T04:08:14.789Z,0
2019-01-12T04:09:13.656Z,0
2019-01-12T04:10:12.196Z,0
2019-01-12T04:11:10.759Z,0
2019-01-12T04:12:09.769Z,0
2019-01-12T04:13:08.313Z,0
2019-01-12T04:14:06.851Z,0
2019-01-12T04:15:05.756Z,0
2019-01-12T04:16:04.317Z,0
2019-01-12T04:17:02.922Z,0
2019-01-12T04:18:01.696Z,0
2019-01-12T04:19:00.259Z,0
2019-01-12T04:19:58.775Z,0
2019-01-12T04:20:57.336Z,0
2019-01-12T04:21:55.866Z,0
2019-01-12T04:22:54.449Z,0
2019-01-12T04:23:52.974Z,0
2019-01-12T04:24:51.580Z,0
2019-01-12T04:25:50.113Z,0
2019-01-12T04:26:48.652Z,0
2019-01-12T04:27:47.536Z,0
2019-01-12T04:28:46.062Z,0
2019-01-12T04:29:44.793Z,0
2019-01-12T04:30:43.455Z,0
2019-01-12T04:31:42.013Z,0
2019-01-12T04:32:40.538Z,0
2019-01-12T04:33:39.075Z,0
2019-01-12T04:34:37.605Z,0
2019-01-12T04:35:36.134Z,0
2019-01-12T04:36:34.669Z,0
2019-01-12T04:37:33.216Z,0
2019-01-12T04:38:31.863Z,0
2019-01-12T04:39:30.416Z,0
2019-01-12T04:40:29.291Z,0
2019-01-12T04:41:27.981Z,0
2019-01-12T04:42:26.522Z,0
2019-01-12T04:43:25.157Z,0
2019-01-12T04:44:23.704Z,0
2019-01-12T04:45:22.242Z,0
2019-01-12T04:46:20.764Z,0
2019-01-12T04:47:19.316Z,0
2019-01-12T04:48:19.639Z,0
2019-01-12T04:49:16.608Z,0
2019-01-12T04:50:15.428Z,0
2019-01-12T04:51:13.999Z,0
2019-01-12T04:52:12.524Z,0
2019-01-12T04:53:11.273Z,0
2019-01-12T04:54:09.829Z,0
2019-01-12T04:55:08.358Z,0
2019-01-12T04:56:06.928Z,0
2019-01-12T04:57:05.467Z,0
2019-01-12T04:58:04.001Z,0
2019-01-12T04:59:02.741Z,0
2019-01-12T05:00:01.514Z,0
2019-01-12T05:01:00.064Z,0
2019-01-12T05:01:58.611Z,0
2019-01-12T05:02:57.482Z,0
2019-01-12T05:03:56.018Z,0
2019-01-12T05:04:54.591Z,0
2019-01-12T05:05:53.145Z,0
2019-01-12T05:06:51.676Z,0
2019-01-12T05:07:50.218Z,0
2019-01-12T05:08:48.756Z,0
2019-01-12T05:09:47.721Z,0
2019-01-12T05:10:46.331Z,0
2019-01-12T05:11:44.876Z,0
2019-01-12T05:12:43.620Z,0
2019-01-12T05:13:42.176Z,0
2019-01-12T05:14:40.717Z,0
2019-01-12T05:15:39.271Z,0
2019-01-12T05:16:37.825Z,0
2019-01-12T05:17:36.411Z,0
2019-01-12T05:18:34.971Z,0
2019-01-12T05:19:33.775Z,0
2019-01-12T05:20:33.579Z,0
2019-01-12T05:21:30.962Z,0
2019-01-12T05:22:29.766Z,0
2019-01-12T05:23:28.312Z,0
2019-01-12T05:24:26.843Z,0
2019-01-12T05:25:25.429Z,0
2019-01-12T05:26:23.957Z,0
2019-01-12T05:27:22.497Z,0
2019-01-12T05:28:21.427Z,0
2019-01-12T05:29:20.003Z,0
2019-01-12T05:30:18.566Z,0
2019-01-12T05:31:17.421Z,0
2019-01-12T05:32:15.961Z,0
2019-01-12T05:33:14.549Z,0
2019-01-12T05:34:13.116Z,0
2019-01-12T05:35:11.659Z,0
2019-01-12T05:36:10.204Z,0
2019-01-12T05:37:08.756Z,0
2019-01-12T05:38:07.743Z,0
2019-01-12T05:39:06.367Z,0
2019-01-12T05:40:05.110Z,0
2019-01-12T05:41:03.636Z,0
2019-01-12T05:42:02.179Z,0
2019-01-12T05:43:00.730Z,0
2019-01-12T05:43:59.277Z,0
2019-01-12T05:44:57.810Z,0
2019-01-12T05:45:56.347Z,0
2019-01-12T05:46:54.919Z,0
2019-01-12T05:47:53.807Z,0
2019-01-12T05:48:52.360Z,0
2019-01-12T05:49:50.951Z,0
2019-01-12T05:50:49.691Z,0
2019-01-12T05:51:48.245Z,0
2019-01-12T05:52:46.795Z,0
2019-01-12T05:53:45.367Z,0
2019-01-12T05:54:43.989Z,0
2019-01-12T05:55:42.523Z,0
2019-01-12T05:56:41.069Z,0
2019-01-12T05:57:39.846Z,0
2019-01-12T05:58:38.407Z,0
2019-01-12T05:59:37.083Z,0
2019-01-12T06:00:35.723Z,0
2019-01-12T06:01:34.537Z,0
2019-01-12T06:02:33.084Z,0
2019-01-12T06:03:31.934Z,0
2019-01-12T06:04:30.490Z,0
2019-01-12T06:05:29.168Z,0
2019-01-12T06:06:27.872Z,0
2019-01-12T06:07:26.428Z,0
2019-01-12T06:08:25.041Z,0
2019-01-12T06:09:23.582Z,0
2019-01-12T06:10:22.132Z,0
2019-01-12T06:11:20.690Z,0
2019-01-12T06:12:19.282Z,0
2019-01-12T06:13:18.016Z,0
2019-01-12T06:14:16.535Z,0
2019-01-12T06:15:15.358Z,0
2019-01-12T06:16:14.057Z,0
2019-01-12T06:17:12.609Z,0
2019-01-12T06:18:11.193Z,0
2019-01-12T06:19:09.756Z,0
2019-01-12T06:20:08.293Z,0
2019-01-12T06:21:06.814Z,0
2019-01-12T06:22:05.355Z,0
2019-01-12T06:23:03.901Z,0
2019-01-12T06:24:02.432Z,0
2019-01-12T06:25:00.959Z,0
2019-01-12T06:26:03.777Z,0
2019-01-12T06:26:58.244Z,0
2019-01-12T06:27:56.819Z,0
2019-01-12T06:28:55.584Z,0
2019-01-12T06:29:54.159Z,0
2019-01-12T06:30:52.862Z,0
2019-01-12T06:31:51.411Z,0
2019-01-12T06:32:49.956Z,0
2019-01-12T06:33:48.499Z,0
2019-01-12T06:34:47.356Z,0
2019-01-12T06:35:45.635Z,0
2019-01-12T06:36:44.172Z,0
2019-01-12T06:37:42.727Z,0
2019-01-12T06:38:41.689Z,0
2019-01-12T06:39:40.229Z,0
2019-01-12T06:40:38.768Z,0
2019-01-12T06:41:37.579Z,0
2019-01-12T06:42:36.098Z,0
2019-01-12T06:43:34.636Z,0
2019-01-12T06:44:33.161Z,0
2019-01-12T06:45:31.685Z,0
2019-01-12T06:46:30.204Z,0
2019-01-12T06:47:28.744Z,0
2019-01-12T06:48:27.308Z,0
2019-01-12T06:49:26.064Z,0
2019-01-12T06:50:24.605Z,0
2019-01-12T06:51:23.396Z,0
2019-01-12T06:52:22.147Z,0
2019-01-12T06:53:20.727Z,0
2019-01-12T06:54:19.280Z,0
2019-01-12T06:55:17.830Z,0
2019-01-12T06:56:16.379Z,0
2019-01-12T06:57:14.919Z,4
2019-01-12T06:58:13.464Z,4
2019-01-12T06:59:12.011Z,4
2019-01-12T07:00:10.545Z,4
2019-01-12T07:01:09.113Z,4
2019-01-12T07:02:07.863Z,4
2019-01-12T07:03:06.461Z,4
2019-01-12T07:04:05.232Z,8
2019-01-12T07:05:03.937Z,4
2019-01-12T07:06:02.476Z,8
2019-01-12T07:07:01.030Z,8
2019-01-12T07:07:59.541Z,4
2019-01-12T07:08:58.221Z,8
2019-01-12T07:09:56.739Z,12
2019-01-12T07:10:55.776Z,12
2019-01-12T07:11:54.308Z,12
2019-01-12T07:12:52.979Z,16
2019-01-12T07:13:51.593Z,12
2019-01-12T07:14:50.227Z,16
2019-01-12T07:15:48.788Z,16
2019-01-12T07:16:47.335Z,20
2019-01-12T07:17:45.881Z,20
2019-01-12T07:18:44.428Z,24
2019-01-12T07:19:42.974Z,28
2019-01-12T07:20:41.742Z,32
2019-01-12T07:21:40.295Z,40
2019-01-12T07:22:38.975Z,44
2019-01-12T07:23:37.771Z,48
2019-01-12T07:24:36.327Z,56
2019-01-12T07:25:34.903Z,64
2019-01-12T07:26:33.437Z,72
2019-01-12T07:27:31.973Z,72
2019-01-12T07:28:30.494Z,80
2019-01-12T07:29:29.048Z,84
2019-01-12T07:30:27.956Z,92
2019-01-12T07:31:26.494Z,96
2019-01-12T07:32:25.180Z,100
2019-01-12T07:33:23.946Z,104
2019-01-12T07:34:22.465Z,108
2019-01-12T07:35:21.038Z,116
2019-01-12T07:36:19.555Z,132
2019-01-12T07:37:18.152Z,140
2019-01-12T07:38:16.774Z,136
2019-01-12T07:39:15.577Z,132
2019-01-12T07:40:14.169Z,148
2019-01-12T07:41:12.699Z,148
2019-01-12T07:42:11.518Z,148
2019-01-12T07:43:10.052Z,160
2019-01-12T07:44:08.613Z,164
2019-01-12T07:45:07.166Z,164
2019-01-12T07:46:05.714Z,172
2019-01-12T07:47:04.253Z,176
2019-01-12T07:48:02.801Z,176
2019-01-12T07:49:01.450Z,184
2019-01-12T07:51:41.894Z,172
2019-01-12T07:52:40.452Z,168
2019-01-12T07:53:38.987Z,164
2019-01-12T07:54:37.704Z,168
2019-01-12T07:55:36.273Z,176
2019-01-12T07:56:34.851Z,196
2019-01-12T07:57:33.564Z,208
2019-01-12T07:58:32.146Z,220
2019-01-12T07:59:30.715Z,228
2019-01-12T08:00:29.426Z,244
2019-01-12T08:01:28.101Z,260
2019-01-12T08:02:26.712Z,244
2019-01-12T08:03:25.875Z,240
2019-01-12T08:04:24.468Z,252
2019-01-12T08:05:23.136Z,260
2019-01-12T08:06:21.919Z,264
2019-01-12T08:07:20.466Z,252
2019-01-12T08:08:19.222Z,264
2019-01-12T08:10:42.785Z,304
2019-01-12T08:11:41.393Z,316
2019-01-12T08:12:40.104Z,328
2019-01-12T08:13:38.621Z,308
2019-01-12T08:14:37.241Z,308
2019-01-12T08:15:35.771Z,332
2019-01-12T08:16:34.408Z,336
2019-01-12T08:17:32.963Z,356
2019-01-12T08:18:31.485Z,324
2019-01-12T08:19:30.019Z,328
2019-01-12T08:20:28.609Z,300
2019-01-12T08:21:28.548Z,292
2019-01-12T08:22:26.195Z,296
2019-01-12T08:23:24.862Z,308
2019-01-12T08:24:23.491Z,340
2019-01-12T08:25:22.042Z,308
2019-01-12T08:26:20.588Z,284
2019-01-12T08:27:20.026Z,300
2019-01-12T08:28:18.613Z,324
2019-01-12T08:29:17.146Z,324
2019-01-12T08:30:15.692Z,352
2019-01-12T08:31:14.292Z,332
2019-01-12T08:32:12.832Z,328
2019-01-12T08:33:11.769Z,364
2019-01-12T08:34:10.284Z,400
2019-01-12T08:35:09.033Z,364
2019-01-12T08:36:07.615Z,336
2019-01-12T08:37:06.171Z,368
2019-01-12T08:38:04.721Z,384
2019-01-12T08:41:47.748Z,532
2019-01-12T08:42:46.322Z,528
2019-01-12T08:43:44.884Z,564
2019-01-12T08:44:43.583Z,632
2019-01-12T08:45:42.156Z,600
2019-01-12T08:46:40.714Z,644
2019-01-12T08:47:39.273Z,616
2019-01-12T08:48:37.903Z,692
2019-01-12T08:49:36.422Z,712
2019-01-12T09:10:08.234Z,872
2019-01-12T09:11:06.798Z,876
2019-01-12T09:12:05.684Z,900
2019-01-12T09:13:05.201Z,924
2019-01-12T09:14:03.968Z,960
2019-01-12T09:15:02.587Z,916
2019-01-12T09:16:01.136Z,1000
2019-01-12T09:18:41.162Z,996
2019-01-12T09:19:40.043Z,1024
2019-01-12T09:20:38.607Z,960
2019-01-12T09:21:37.140Z,1120
2019-01-12T09:22:35.797Z,1088
2019-01-12T09:23:34.340Z,1024
2019-01-12T09:24:32.918Z,1064
2019-01-12T09:25:31.527Z,1060
2019-01-12T09:26:30.093Z,1272
2019-01-12T09:27:28.611Z,1288
2019-01-12T09:28:27.174Z,1204
2019-01-12T09:29:25.720Z,1372
2019-01-12T09:30:24.313Z,1304
2019-01-12T09:31:22.871Z,1400
2019-01-12T09:32:21.867Z,1356
2019-01-12T09:33:20.483Z,1272
2019-01-12T09:34:19.202Z,1248
2019-01-12T09:35:17.724Z,1044
2019-01-12T09:36:16.308Z,1008
2019-01-12T09:37:14.907Z,964
2019-01-12T09:38:13.431Z,1112
2019-01-12T09:39:12.149Z,1060
2019-01-12T09:40:10.878Z,960
2019-01-12T09:41:10.382Z,908
2019-01-12T09:42:09.051Z,848
2019-01-12T09:43:07.903Z,880
2019-01-12T09:44:06.437Z,948
2019-01-12T09:45:05.036Z,1028
2019-01-12T09:47:44.985Z,1020
2019-01-12T09:48:43.901Z,892
2019-01-12T09:49:42.445Z,1128
2019-01-12T09:50:41.104Z,1044
2019-01-12T09:51:39.861Z,996
2019-01-12T09:52:38.602Z,916
2019-01-12T09:56:17.849Z,916
2019-01-12T09:57:16.393Z,1064
2019-01-12T09:58:14.912Z,1068
2019-01-12T09:59:13.706Z,1196
2019-01-12T10:00:12.334Z,1240
2019-01-12T10:01:11.212Z,1380
2019-01-12T10:02:09.874Z,1368
2019-01-12T10:03:09.187Z,1292
2019-01-12T10:04:06.944Z,1272
2019-01-12T10:05:05.533Z,1260
2019-01-12T10:06:04.161Z,1188
2019-01-12T10:07:02.697Z,1124
2019-01-12T10:08:01.653Z,1064
2019-01-12T10:09:00.287Z,1016
2019-01-12T10:09:58.888Z,988
2019-01-12T10:10:57.674Z,964
2019-01-12T10:11:56.239Z,948
2019-01-12T10:12:54.831Z,940
2019-01-12T10:13:54.757Z,932
2019-01-12T10:14:53.624Z,900
2019-01-12T10:15:52.171Z,904
2019-01-12T10:16:50.725Z,920
2019-01-12T10:17:49.235Z,900
2019-01-12T10:18:47.833Z,916
2019-01-12T10:19:46.419Z,916
2019-01-12T10:20:44.992Z,792
2019-01-12T10:21:43.948Z,904
2019-01-12T10:22:42.583Z,888
2019-01-12T10:23:41.243Z,868
2019-01-12T10:24:39.903Z,912
2019-01-12T10:25:38.465Z,892
2019-01-12T10:26:37.091Z,824
2019-01-12T10:27:35.900Z,812
2019-01-12T10:28:34.704Z,732
2019-01-12T10:29:33.341Z,708
2019-01-12T10:30:32.536Z,684
2019-01-12T10:31:32.292Z,580
2019-01-12T10:32:30.844Z,688
2019-01-12T10:35:11.187Z,876
2019-01-12T10:36:10.085Z,884
2019-01-12T10:37:08.673Z,864
2019-01-12T10:38:07.322Z,948
2019-01-12T10:39:05.937Z,916
2019-01-12T10:40:04.514Z,836
2019-01-12T10:43:03.898Z,1220
2019-01-12T10:44:02.626Z,1492
2019-01-12T10:48:50.484Z,1708
2019-01-12T10:49:49.010Z,1528
2019-01-12T10:52:29.219Z,1780
2019-01-12T10:53:28.076Z,1760
2019-01-12T10:54:27.279Z,1736
2019-01-12T10:55:25.999Z,1880
2019-01-12T10:56:24.590Z,2072
2019-01-12T10:57:23.175Z,2076
2019-01-12T10:58:22.084Z,2024
2019-01-12T10:59:20.621Z,1944
2019-01-12T11:00:19.421Z,1804
2019-01-12T11:20:37.973Z,940
2019-01-12T11:21:37.219Z,1020
2019-01-12T11:22:35.674Z,1132
2019-01-12T11:23:34.236Z,1140
2019-01-12T11:24:32.824Z,992
2019-01-12T11:25:31.374Z,832
2019-01-12T11:26:30.054Z,840
2019-01-12T11:27:28.606Z,896
2019-01-12T11:28:27.537Z,940
2019-01-12T11:29:26.213Z,1016
2019-01-12T11:30:24.736Z,1032
2019-01-12T11:31:23.452Z,956
2019-01-12T11:32:22.318Z,1012
2019-01-12T11:33:20.660Z,1020
2019-01-12T11:34:19.323Z,1028
2019-01-12T11:35:17.976Z,972
2019-01-12T11:36:16.505Z,992
2019-01-12T11:37:15.159Z,1004
2019-01-12T11:38:14.030Z,1032
2019-01-12T11:39:12.775Z,1016
2019-01-12T11:40:11.968Z,936
2019-01-12T11:41:10.655Z,924
2019-01-12T11:42:09.202Z,932
2019-01-12T11:43:08.011Z,964
2019-01-12T11:44:06.551Z,1024
2019-01-12T11:45:05.225Z,1052
2019-01-12T11:46:04.115Z,988
2019-01-12T11:47:03.700Z,1008
2019-01-12T11:48:02.273Z,900
2019-01-12T11:49:00.832Z,820
2019-01-12T11:49:59.787Z,800
2019-01-12T11:50:58.391Z,728
2019-01-12T11:51:57.013Z,856
2019-01-12T11:52:55.622Z,968
2019-01-12T11:53:54.205Z,1064
2019-01-12T11:54:53.099Z,1172
2019-01-12T11:55:51.912Z,1164
2019-01-12T11:56:50.596Z,1312
2019-01-12T11:57:49.194Z,1740
2019-01-12T11:58:47.735Z,2076
2019-01-12T11:59:46.445Z,2132
2019-01-12T12:00:44.969Z,2316
2019-01-12T12:01:43.927Z,2092
2019-01-12T12:02:42.462Z,1708
2019-01-12T12:03:41.310Z,1592
2019-01-12T12:04:39.807Z,1516
2019-01-12T12:05:38.377Z,1452
2019-01-12T12:06:36.914Z,1552
2019-01-12T12:07:35.440Z,1444
2019-01-12T12:08:33.990Z,1056
2019-01-12T12:09:32.543Z,896
2019-01-12T12:10:31.132Z,900
2019-01-12T12:11:29.979Z,968
2019-01-12T12:12:28.534Z,1076
2019-01-12T12:13:27.178Z,1016
2019-01-12T12:14:25.936Z,804
2019-01-12T12:15:24.488Z,876
2019-01-12T12:16:23.039Z,976
2019-01-12T12:17:21.597Z,1284
2019-01-12T12:18:20.166Z,1528
2019-01-12T12:19:18.691Z,1636
2019-01-12T12:20:17.189Z,1380
2019-01-12T12:21:15.956Z,1256
2019-01-12T12:22:14.534Z,1428
2019-01-12T12:23:13.237Z,1244
2019-01-12T12:24:11.898Z,1256
2019-01-12T12:26:56.012Z,996
2019-01-12T12:27:54.675Z,860
2019-01-12T12:28:53.206Z,800
2019-01-12T12:31:33.662Z,1328
2019-01-12T12:32:32.219Z,1472
2019-01-12T12:33:30.762Z,1524
2019-01-12T12:34:29.515Z,1396
2019-01-12T12:35:28.079Z,1232
2019-01-12T12:36:26.742Z,1180
2019-01-12T12:37:25.323Z,1132
2019-01-12T12:38:24.084Z,1372
2019-01-12T12:39:22.651Z,1556
2019-01-12T12:40:21.299Z,1660
2019-01-12T12:41:20.183Z,1600
2019-01-12T12:42:18.724Z,1400
2019-01-12T12:43:17.255Z,1500
2019-01-12T12:44:15.789Z,1576
2019-01-12T12:45:14.313Z,1352
2019-01-12T12:46:12.828Z,964
2019-01-12T12:47:11.390Z,1012
2019-01-12T12:48:10.132Z,1056
2019-01-12T12:49:08.714Z,836
2019-01-12T12:50:09.364Z,668
2019-01-12T12:51:08.180Z,608
2019-01-12T12:52:06.731Z,508
2019-01-12T12:53:05.316Z,520
2019-01-12T12:54:03.853Z,556
2019-01-12T12:55:02.364Z,688
2019-01-12T12:56:00.885Z,824
2019-01-12T12:56:59.440Z,1180
2019-01-12T12:57:57.974Z,1404
2019-01-12T12:58:56.539Z,1456
2019-01-12T12:59:55.125Z,1640
2019-01-12T13:00:54.058Z,1504
2019-01-12T13:01:53.063Z,1440
2019-01-12T13:02:51.687Z,1384
2019-01-12T13:03:50.331Z,1000
2019-01-12T13:04:48.855Z,920
2019-01-12T13:05:47.687Z,700
2019-01-12T13:06:46.645Z,708
2019-01-12T13:07:45.178Z,696
2019-01-12T13:08:48.367Z,744
2019-01-12T13:09:42.529Z,652
2019-01-12T13:10:41.197Z,492
2019-01-12T13:11:39.932Z,504
2019-01-12T13:14:19.979Z,476
2019-01-12T13:15:18.499Z,636
2019-01-12T13:16:17.026Z,584
2019-01-12T13:17:15.647Z,556
2019-01-12T13:18:14.238Z,644
2019-01-12T13:19:12.929Z,668
2019-01-12T13:20:11.839Z,644
2019-01-12T13:21:10.395Z,600
2019-01-12T13:22:08.933Z,644
2019-01-12T13:23:07.621Z,648
2019-01-12T13:24:06.151Z,712
2019-01-12T13:25:04.690Z,776
2019-01-12T13:26:03.244Z,744
2019-01-12T13:27:02.332Z,832
2019-01-12T13:28:00.876Z,872
2019-01-12T13:28:59.572Z,908
2019-01-12T13:29:58.173Z,788
2019-01-12T13:30:56.711Z,764
2019-01-12T13:31:55.221Z,728
2019-01-12T13:32:53.775Z,752
2019-01-12T13:33:52.307Z,700
2019-01-12T13:34:50.932Z,628
2019-01-12T13:35:49.465Z,652
2019-01-12T13:36:48.205Z,624
2019-01-12T13:37:46.753Z,584
2019-01-12T13:38:45.592Z,524
2019-01-12T13:39:44.309Z,536
2019-01-12T13:40:42.982Z,376
2019-01-12T13:41:41.560Z,296
2019-01-12T13:42:40.152Z,324
2019-01-12T13:43:38.655Z,368
2019-01-12T13:44:37.202Z,320
2019-01-12T13:45:36.616Z,308
2019-01-12T13:46:35.173Z,340
2019-01-12T13:47:34.042Z,348
2019-01-12T13:48:32.571Z,376
2019-01-12T13:49:31.270Z,428
2019-01-12T13:50:30.065Z,424
2019-01-12T13:51:28.792Z,444
2019-01-12T13:52:27.318Z,384
2019-01-12T13:53:26.169Z,372
2019-01-12T13:54:25.878Z,356
2019-01-12T13:55:23.544Z,412
2019-01-12T13:56:22.125Z,496
2019-01-12T13:57:20.665Z,564
2019-01-12T13:58:19.218Z,520
2019-01-12T14:00:59.509Z,432
2019-01-12T14:03:40.024Z,496
2019-01-12T14:04:38.555Z,476
2019-01-12T14:05:37.124Z,520
2019-01-12T14:06:35.734Z,440
2019-01-12T14:07:34.582Z,436
2019-01-12T14:08:33.292Z,464
2019-01-12T14:09:32.141Z,536
2019-01-12T14:10:30.659Z,532
2019-01-12T14:11:29.371Z,464
2019-01-12T14:12:28.271Z,464
2019-01-12T14:13:26.791Z,492
2019-01-12T14:16:07.089Z,676
2019-01-12T14:18:48.200Z,492
2019-01-12T14:19:46.760Z,568
2019-01-12T14:20:45.494Z,564
2019-01-12T14:21:44.096Z,644
2019-01-12T14:22:42.735Z,576
2019-01-12T14:25:23.153Z,688
2019-01-12T14:28:24.638Z,716
2019-01-12T14:29:23.185Z,720
2019-01-12T14:30:22.278Z,676
2019-01-12T14:31:21.192Z,728
2019-01-12T14:33:56.355Z,708
2019-01-12T14:34:55.264Z,676
2019-01-12T14:35:54.075Z,616
2019-01-12T14:36:53.523Z,628
2019-01-12T14:37:51.262Z,576
2019-01-12T14:38:49.987Z,584
2019-01-12T14:39:48.516Z,592
2019-01-12T14:40:47.079Z,648
2019-01-12T14:41:45.878Z,640
2019-01-12T14:42:44.424Z,692
2019-01-12T14:43:43.050Z,552
2019-01-12T14:44:41.816Z,600
2019-01-12T14:45:40.388Z,584
2019-01-12T14:46:38.980Z,608
2019-01-12T14:47:38.075Z,528
2019-01-12T14:48:36.620Z,488
2019-01-12T14:51:16.847Z,408
2019-01-12T14:52:15.400Z,300
2019-01-12T14:53:13.960Z,252
2019-01-12T14:55:54.427Z,232
2019-01-12T14:56:52.999Z,216
2019-01-12T14:57:51.729Z,220
2019-01-12T14:58:50.298Z,192
2019-01-12T14:59:48.850Z,168
2019-01-12T15:00:48.152Z,164
2019-01-12T15:01:46.647Z,156
2019-01-12T15:02:45.182Z,136
2019-01-12T15:03:43.822Z,120
2019-01-12T15:07:22.640Z,136
2019-01-12T15:08:21.167Z,168
2019-01-12T15:09:19.942Z,184
2019-01-12T15:10:18.504Z,180
2019-01-12T15:11:17.047Z,172
2019-01-12T15:12:15.962Z,156
2019-01-12T15:13:14.489Z,160
2019-01-12T15:14:13.085Z,136
2019-01-12T15:15:12.020Z,112
2019-01-12T15:16:10.696Z,92
2019-01-12T15:17:09.390Z,84
2019-01-12T15:18:08.020Z,80
2019-01-12T15:19:06.815Z,68
2019-01-12T15:20:05.573Z,68
2019-01-12T15:21:04.303Z,64
2019-01-12T15:22:02.849Z,56
2019-01-12T15:23:01.549Z,52
2019-01-12T15:24:00.072Z,52
2019-01-12T15:24:58.582Z,48
2019-01-12T15:25:57.154Z,52
2019-01-12T15:26:55.715Z,60
2019-01-12T15:27:54.523Z,60
2019-01-12T15:28:53.275Z,60
2019-01-12T15:29:52.100Z,60
2019-01-12T15:30:50.663Z,56
2019-01-12T15:31:49.962Z,48
2019-01-12T15:32:48.153Z,44
2019-01-12T15:35:10.873Z,32
2019-01-12T15:36:09.536Z,28
2019-01-12T15:37:08.182Z,28
2019-01-12T15:38:06.885Z,28
2019-01-12T15:39:05.729Z,28
2019-01-12T15:40:04.351Z,24
2019-01-12T15:42:44.748Z,20
2019-01-12T15:43:43.260Z,16
2019-01-12T15:44:42.133Z,16
2019-01-12T15:45:40.627Z,16